Eldridge, Alabama
Current Conditions -  °F | °C
As of 9:55 AM on Saturday 20 Dec 2014 (Local Time) from KJFX Reporting Station
Haze Haze  
Wind Chill: 46°   Ceiling: 4200
Heat Index: 46°   Visibility: 6mi
Dew Point: 36°   Wind: 3mph
Humidity: 66%   Direction: 100°E
Pressure: 30.26"   Gusts: NA
Location:  33.92°N, 87.62°W
Report Text: KJFX 201555Z AUTO 10003KT 6SM HZ BKN042 08/02 A3026 RMK A02 P-128
Loading
Personal Weather Stations






























Interactive Weather Map New forecast layout! Learn more

10-Day Weather Forecast

Advertisements
Track Severe Weather on mobile